sensor_id;sensor_type;location;lat;lon;timestamp;P1;durP1;ratioP1;P2;durP2;ratioP2
51270;SDS011;37744;50.960;4.136;2023-07-09T00:02:17;8.15;;;4.57;;
51270;SDS011;37744;50.960;4.136;2023-07-09T00:04:42;9.23;;;4.80;;
51270;SDS011;37744;50.960;4.136;2023-07-09T00:07:20;9.48;;;5.07;;
51270;SDS011;37744;50.960;4.136;2023-07-09T00:09:47;8.43;;;4.68;;
51270;SDS011;37744;50.960;4.136;2023-07-09T00:12:13;8.77;;;4.40;;
51270;SDS011;37744;50.960;4.136;2023-07-09T00:14:38;9.05;;;4.53;;
51270;SDS011;37744;50.960;4.136;2023-07-09T00:17:07;6.57;;;4.45;;
51270;SDS011;37744;50.960;4.136;2023-07-09T00:19:32;8.27;;;4.22;;
51270;SDS011;37744;50.960;4.136;2023-07-09T00:21:58;6.28;;;4.28;;
51270;SDS011;37744;50.960;4.136;2023-07-09T00:24:23;11.68;;;4.45;;
51270;SDS011;37744;50.960;4.136;2023-07-09T00:26:48;7.28;;;4.18;;
51270;SDS011;37744;50.960;4.136;2023-07-09T00:29:15;8.40;;;3.90;;
51270;SDS011;37744;50.960;4.136;2023-07-09T00:31:40;7.97;;;4.20;;
51270;SDS011;37744;50.960;4.136;2023-07-09T00:34:13;7.60;;;4.13;;
51270;SDS011;37744;50.960;4.136;2023-07-09T00:36:38;9.02;;;4.22;;
51270;SDS011;37744;50.960;4.136;2023-07-09T00:39:04;7.22;;;4.55;;
51270;SDS011;37744;50.960;4.136;2023-07-09T00:41:34;7.03;;;4.55;;
51270;SDS011;37744;50.960;4.136;2023-07-09T00:44:01;6.90;;;4.22;;
51270;SDS011;37744;50.960;4.136;2023-07-09T00:49:04;6.83;;;4.40;;
51270;SDS011;37744;50.960;4.136;2023-07-09T00:51:30;7.95;;;4.30;;
51270;SDS011;37744;50.960;4.136;2023-07-09T00:54:01;9.40;;;4.55;;
51270;SDS011;37744;50.960;4.136;2023-07-09T00:56:33;10.52;;;4.70;;
51270;SDS011;37744;50.960;4.136;2023-07-09T00:59:01;9.13;;;4.50;;
51270;SDS011;37744;50.960;4.136;2023-07-09T01:01:29;5.85;;;4.60;;
51270;SDS011;37744;50.960;4.136;2023-07-09T01:03:55;9.27;;;4.35;;
51270;SDS011;37744;50.960;4.136;2023-07-09T01:06:28;5.25;;;4.10;;
51270;SDS011;37744;50.960;4.136;2023-07-09T01:08:57;5.78;;;4.45;;
51270;SDS011;37744;50.960;4.136;2023-07-09T01:11:24;6.28;;;4.40;;
51270;SDS011;37744;50.960;4.136;2023-07-09T01:13:49;9.20;;;4.47;;
51270;SDS011;37744;50.960;4.136;2023-07-09T01:16:17;7.88;;;4.55;;
51270;SDS011;37744;50.960;4.136;2023-07-09T01:18:42;7.68;;;4.47;;
51270;SDS011;37744;50.960;4.136;2023-07-09T01:21:09;6.30;;;4.55;;
51270;SDS011;37744;50.960;4.136;2023-07-09T01:23:40;7.40;;;4.60;;
51270;SDS011;37744;50.960;4.136;2023-07-09T01:26:10;6.57;;;4.18;;
51270;SDS011;37744;50.960;4.136;2023-07-09T01:28:36;8.15;;;4.50;;
51270;SDS011;37744;50.960;4.136;2023-07-09T01:31:01;5.75;;;4.18;;
51270;SDS011;37744;50.960;4.136;2023-07-09T01:33:29;6.85;;;4.50;;
51270;SDS011;37744;50.960;4.136;2023-07-09T01:35:55;5.57;;;3.65;;
51270;SDS011;37744;50.960;4.136;2023-07-09T01:38:25;7.30;;;4.32;;
51270;SDS011;37744;50.960;4.136;2023-07-09T01:40:50;7.78;;;4.60;;
51270;SDS011;37744;50.960;4.136;2023-07-09T01:43:15;6.28;;;4.05;;
51270;SDS011;37744;50.960;4.136;2023-07-09T01:45:41;6.30;;;4.57;;
51270;SDS011;37744;50.960;4.136;2023-07-09T01:48:06;7.03;;;4.55;;
51270;SDS011;37744;50.960;4.136;2023-07-09T01:50:39;6.47;;;5.20;;
51270;SDS011;37744;50.960;4.136;2023-07-09T01:53:07;7.88;;;5.05;;
51270;SDS011;37744;50.960;4.136;2023-07-09T01:55:33;9.43;;;5.07;;
51270;SDS011;37744;50.960;4.136;2023-07-09T01:57:58;10.18;;;5.13;;
51270;SDS011;37744;50.960;4.136;2023-07-09T02:00:24;6.68;;;4.32;;
51270;SDS011;37744;50.960;4.136;2023-07-09T02:02:49;7.70;;;4.95;;
51270;SDS011;37744;50.960;4.136;2023-07-09T02:05:16;7.93;;;4.47;;
51270;SDS011;37744;50.960;4.136;2023-07-09T02:07:42;7.30;;;4.85;;
51270;SDS011;37744;50.960;4.136;2023-07-09T02:10:08;7.43;;;4.97;;
51270;SDS011;37744;50.960;4.136;2023-07-09T02:12:33;7.22;;;4.72;;
51270;SDS011;37744;50.960;4.136;2023-07-09T02:14:59;7.38;;;4.88;;
51270;SDS011;37744;50.960;4.136;2023-07-09T02:17:24;8.48;;;5.10;;
51270;SDS011;37744;50.960;4.136;2023-07-09T02:19:50;8.13;;;4.60;;
51270;SDS011;37744;50.960;4.136;2023-07-09T02:22:15;8.43;;;4.97;;
51270;SDS011;37744;50.960;4.136;2023-07-09T02:24:41;9.65;;;5.70;;
51270;SDS011;37744;50.960;4.136;2023-07-09T02:27:07;12.45;;;6.07;;
51270;SDS011;37744;50.960;4.136;2023-07-09T02:29:33;9.50;;;5.15;;
51270;SDS011;37744;50.960;4.136;2023-07-09T02:32:00;9.25;;;5.35;;
51270;SDS011;37744;50.960;4.136;2023-07-09T02:34:26;10.30;;;5.63;;
51270;SDS011;37744;50.960;4.136;2023-07-09T02:36:55;9.30;;;5.43;;
51270;SDS011;37744;50.960;4.136;2023-07-09T02:39:21;10.43;;;5.60;;
51270;SDS011;37744;50.960;4.136;2023-07-09T02:41:46;9.32;;;5.32;;
51270;SDS011;37744;50.960;4.136;2023-07-09T02:44:12;11.65;;;6.20;;
51270;SDS011;37744;50.960;4.136;2023-07-09T02:46:37;7.63;;;5.82;;
51270;SDS011;37744;50.960;4.136;2023-07-09T02:49:03;12.00;;;6.05;;
51270;SDS011;37744;50.960;4.136;2023-07-09T02:51:29;9.18;;;5.35;;
51270;SDS011;37744;50.960;4.136;2023-07-09T02:53:55;8.50;;;5.50;;
51270;SDS011;37744;50.960;4.136;2023-07-09T02:56:21;9.95;;;5.32;;
51270;SDS011;37744;50.960;4.136;2023-07-09T02:58:46;10.90;;;5.55;;
51270;SDS011;37744;50.960;4.136;2023-07-09T03:01:12;8.68;;;5.30;;
51270;SDS011;37744;50.960;4.136;2023-07-09T03:03:37;8.93;;;5.25;;
51270;SDS011;37744;50.960;4.136;2023-07-09T03:06:03;9.88;;;5.63;;
51270;SDS011;37744;50.960;4.136;2023-07-09T03:08:28;9.77;;;5.72;;
51270;SDS011;37744;50.960;4.136;2023-07-09T03:10:53;9.38;;;5.75;;
51270;SDS011;37744;50.960;4.136;2023-07-09T03:13:18;9.95;;;6.65;;
51270;SDS011;37744;50.960;4.136;2023-07-09T03:15:53;8.57;;;6.05;;
51270;SDS011;37744;50.960;4.136;2023-07-09T03:18:18;12.30;;;6.90;;
51270;SDS011;37744;50.960;4.136;2023-07-09T03:20:43;14.95;;;7.60;;
51270;SDS011;37744;50.960;4.136;2023-07-09T03:23:08;10.40;;;6.72;;
51270;SDS011;37744;50.960;4.136;2023-07-09T03:25:34;10.50;;;7.00;;
51270;SDS011;37744;50.960;4.136;2023-07-09T03:27:59;11.02;;;7.07;;
51270;SDS011;37744;50.960;4.136;2023-07-09T03:30:24;9.52;;;6.43;;
51270;SDS011;37744;50.960;4.136;2023-07-09T03:32:50;11.43;;;6.50;;
51270;SDS011;37744;50.960;4.136;2023-07-09T03:35:15;12.77;;;6.80;;
51270;SDS011;37744;50.960;4.136;2023-07-09T03:37:40;11.43;;;5.93;;
51270;SDS011;37744;50.960;4.136;2023-07-09T03:40:06;12.63;;;6.35;;
51270;SDS011;37744;50.960;4.136;2023-07-09T03:42:32;9.35;;;6.13;;
51270;SDS011;37744;50.960;4.136;2023-07-09T03:44:57;9.70;;;5.72;;
51270;SDS011;37744;50.960;4.136;2023-07-09T03:47:22;11.15;;;7.80;;
51270;SDS011;37744;50.960;4.136;2023-07-09T03:49:48;8.20;;;6.38;;
51270;SDS011;37744;50.960;4.136;2023-07-09T03:52:13;10.32;;;6.72;;
51270;SDS011;37744;50.960;4.136;2023-07-09T03:54:39;16.10;;;9.23;;
51270;SDS011;37744;50.960;4.136;2023-07-09T03:57:05;14.90;;;10.52;;
51270;SDS011;37744;50.960;4.136;2023-07-09T03:59:31;17.90;;;12.07;;
51270;SDS011;37744;50.960;4.136;2023-07-09T04:01:56;21.30;;;13.00;;
51270;SDS011;37744;50.960;4.136;2023-07-09T04:04:22;16.83;;;10.80;;
51270;SDS011;37744;50.960;4.136;2023-07-09T04:06:47;18.55;;;11.18;;
51270;SDS011;37744;50.960;4.136;2023-07-09T04:09:12;19.50;;;13.65;;
51270;SDS011;37744;50.960;4.136;2023-07-09T04:11:37;18.20;;;11.60;;
51270;SDS011;37744;50.960;4.136;2023-07-09T04:14:03;18.63;;;10.93;;
51270;SDS011;37744;50.960;4.136;2023-07-09T04:16:28;16.58;;;10.68;;
51270;SDS011;37744;50.960;4.136;2023-07-09T04:18:53;15.50;;;10.27;;
51270;SDS011;37744;50.960;4.136;2023-07-09T04:21:18;16.30;;;10.98;;
51270;SDS011;37744;50.960;4.136;2023-07-09T04:23:44;15.73;;;10.35;;
51270;SDS011;37744;50.960;4.136;2023-07-09T04:26:12;19.55;;;10.68;;
51270;SDS011;37744;50.960;4.136;2023-07-09T04:28:38;17.00;;;10.80;;
51270;SDS011;37744;50.960;4.136;2023-07-09T04:31:03;13.82;;;10.02;;
51270;SDS011;37744;50.960;4.136;2023-07-09T04:33:28;22.10;;;14.02;;
51270;SDS011;37744;50.960;4.136;2023-07-09T04:35:55;24.00;;;14.57;;
51270;SDS011;37744;50.960;4.136;2023-07-09T04:38:20;35.05;;;22.23;;
51270;SDS011;37744;50.960;4.136;2023-07-09T04:40:46;36.45;;;22.00;;
51270;SDS011;37744;50.960;4.136;2023-07-09T04:43:11;40.35;;;28.02;;
51270;SDS011;37744;50.960;4.136;2023-07-09T04:45:37;48.35;;;33.65;;
51270;SDS011;37744;50.960;4.136;2023-07-09T04:48:02;64.38;;;39.90;;
51270;SDS011;37744;50.960;4.136;2023-07-09T04:50:28;68.35;;;45.33;;
51270;SDS011;37744;50.960;4.136;2023-07-09T04:52:54;78.28;;;48.47;;
51270;SDS011;37744;50.960;4.136;2023-07-09T04:55:19;76.10;;;49.00;;
51270;SDS011;37744;50.960;4.136;2023-07-09T04:57:45;83.95;;;54.42;;
51270;SDS011;37744;50.960;4.136;2023-07-09T05:00:10;81.72;;;55.90;;
51270;SDS011;37744;50.960;4.136;2023-07-09T05:02:36;95.07;;;57.88;;
51270;SDS011;37744;50.960;4.136;2023-07-09T05:05:01;87.63;;;58.25;;
51270;SDS011;37744;50.960;4.136;2023-07-09T05:07:26;91.20;;;59.22;;
51270;SDS011;37744;50.960;4.136;2023-07-09T05:09:52;87.93;;;57.05;;
51270;SDS011;37744;50.960;4.136;2023-07-09T05:12:18;86.82;;;56.38;;
51270;SDS011;37744;50.960;4.136;2023-07-09T05:14:46;89.30;;;56.17;;
51270;SDS011;37744;50.960;4.136;2023-07-09T05:17:11;88.78;;;58.85;;
51270;SDS011;37744;50.960;4.136;2023-07-09T05:19:36;87.28;;;56.35;;
51270;SDS011;37744;50.960;4.136;2023-07-09T05:22:02;86.03;;;54.92;;
51270;SDS011;37744;50.960;4.136;2023-07-09T05:24:27;87.55;;;58.03;;
51270;SDS011;37744;50.960;4.136;2023-07-09T05:26:53;91.15;;;57.20;;
51270;SDS011;37744;50.960;4.136;2023-07-09T05:29:18;84.60;;;53.10;;
51270;SDS011;37744;50.960;4.136;2023-07-09T05:31:43;88.32;;;51.67;;
51270;SDS011;37744;50.960;4.136;2023-07-09T05:34:09;82.53;;;51.80;;
51270;SDS011;37744;50.960;4.136;2023-07-09T05:36:34;82.53;;;52.40;;
51270;SDS011;37744;50.960;4.136;2023-07-09T05:38:59;83.53;;;52.50;;
51270;SDS011;37744;50.960;4.136;2023-07-09T05:41:25;82.35;;;53.25;;
51270;SDS011;37744;50.960;4.136;2023-07-09T05:43:50;78.10;;;50.55;;
51270;SDS011;37744;50.960;4.136;2023-07-09T05:46:16;79.68;;;50.33;;
51270;SDS011;37744;50.960;4.136;2023-07-09T05:48:42;78.25;;;49.85;;
51270;SDS011;37744;50.960;4.136;2023-07-09T05:51:07;78.93;;;50.13;;
51270;SDS011;37744;50.960;4.136;2023-07-09T05:53:32;80.22;;;49.78;;
51270;SDS011;37744;50.960;4.136;2023-07-09T05:55:58;78.32;;;51.53;;
51270;SDS011;37744;50.960;4.136;2023-07-09T05:58:24;79.05;;;50.40;;
51270;SDS011;37744;50.960;4.136;2023-07-09T06:00:50;69.72;;;48.08;;
51270;SDS011;37744;50.960;4.136;2023-07-09T06:03:18;75.40;;;49.42;;
51270;SDS011;37744;50.960;4.136;2023-07-09T06:05:44;72.30;;;47.50;;
51270;SDS011;37744;50.960;4.136;2023-07-09T06:08:09;81.03;;;49.70;;
51270;SDS011;37744;50.960;4.136;2023-07-09T06:10:34;73.07;;;47.20;;
51270;SDS011;37744;50.960;4.136;2023-07-09T06:13:00;77.50;;;45.58;;
51270;SDS011;37744;50.960;4.136;2023-07-09T06:15:25;76.35;;;46.90;;
51270;SDS011;37744;50.960;4.136;2023-07-09T06:17:51;73.07;;;46.78;;
51270;SDS011;37744;50.960;4.136;2023-07-09T06:20:16;73.20;;;45.88;;
51270;SDS011;37744;50.960;4.136;2023-07-09T06:22:42;87.97;;;52.90;;
51270;SDS011;37744;50.960;4.136;2023-07-09T06:25:08;90.40;;;55.47;;
51270;SDS011;37744;50.960;4.136;2023-07-09T06:27:33;88.15;;;53.33;;
51270;SDS011;37744;50.960;4.136;2023-07-09T06:29:58;89.00;;;55.40;;
51270;SDS011;37744;50.960;4.136;2023-07-09T06:32:23;99.10;;;59.08;;
51270;SDS011;37744;50.960;4.136;2023-07-09T06:34:49;95.97;;;56.22;;
51270;SDS011;37744;50.960;4.136;2023-07-09T06:37:14;82.53;;;50.72;;
51270;SDS011;37744;50.960;4.136;2023-07-09T06:39:39;81.03;;;52.38;;
51270;SDS011;37744;50.960;4.136;2023-07-09T06:42:05;87.95;;;52.97;;
51270;SDS011;37744;50.960;4.136;2023-07-09T06:44:30;86.13;;;53.30;;
51270;SDS011;37744;50.960;4.136;2023-07-09T06:46:55;86.13;;;54.58;;
51270;SDS011;37744;50.960;4.136;2023-07-09T06:49:20;87.22;;;53.30;;
51270;SDS011;37744;50.960;4.136;2023-07-09T06:51:46;69.70;;;43.22;;
51270;SDS011;37744;50.960;4.136;2023-07-09T06:54:12;65.00;;;41.97;;
51270;SDS011;37744;50.960;4.136;2023-07-09T06:56:37;70.68;;;41.90;;
51270;SDS011;37744;50.960;4.136;2023-07-09T06:59:02;70.53;;;42.47;;
51270;SDS011;37744;50.960;4.136;2023-07-09T07:01:27;64.35;;;41.13;;
51270;SDS011;37744;50.960;4.136;2023-07-09T07:03:53;65.80;;;41.75;;
51270;SDS011;37744;50.960;4.136;2023-07-09T07:06:18;77.05;;;45.58;;
51270;SDS011;37744;50.960;4.136;2023-07-09T07:08:43;74.28;;;42.60;;
51270;SDS011;37744;50.960;4.136;2023-07-09T07:11:09;67.78;;;42.65;;
51270;SDS011;37744;50.960;4.136;2023-07-09T07:13:35;65.10;;;40.22;;
51270;SDS011;37744;50.960;4.136;2023-07-09T07:16:04;65.28;;;40.35;;
51270;SDS011;37744;50.960;4.136;2023-07-09T07:18:30;59.45;;;38.22;;
51270;SDS011;37744;50.960;4.136;2023-07-09T07:20:55;60.00;;;38.55;;
51270;SDS011;37744;50.960;4.136;2023-07-09T07:23:20;64.97;;;38.78;;
51270;SDS011;37744;50.960;4.136;2023-07-09T07:25:46;59.13;;;37.10;;
51270;SDS011;37744;50.960;4.136;2023-07-09T07:28:11;53.65;;;34.20;;
51270;SDS011;37744;50.960;4.136;2023-07-09T07:30:37;52.78;;;31.38;;
51270;SDS011;37744;50.960;4.136;2023-07-09T07:33:02;48.63;;;29.98;;
51270;SDS011;37744;50.960;4.136;2023-07-09T07:35:28;48.60;;;30.00;;
51270;SDS011;37744;50.960;4.136;2023-07-09T07:37:53;52.45;;;30.83;;
51270;SDS011;37744;50.960;4.136;2023-07-09T07:40:19;45.13;;;29.80;;
51270;SDS011;37744;50.960;4.136;2023-07-09T07:42:44;47.75;;;30.45;;
51270;SDS011;37744;50.960;4.136;2023-07-09T07:45:11;51.20;;;30.85;;
51270;SDS011;37744;50.960;4.136;2023-07-09T07:47:36;54.67;;;32.13;;
51270;SDS011;37744;50.960;4.136;2023-07-09T07:50:01;54.53;;;33.53;;
51270;SDS011;37744;50.960;4.136;2023-07-09T07:52:27;48.60;;;30.80;;
51270;SDS011;37744;50.960;4.136;2023-07-09T07:54:53;50.58;;;29.52;;
51270;SDS011;37744;50.960;4.136;2023-07-09T07:57:18;46.22;;;28.20;;
51270;SDS011;37744;50.960;4.136;2023-07-09T07:59:44;45.30;;;27.42;;
51270;SDS011;37744;50.960;4.136;2023-07-09T08:02:11;42.65;;;27.58;;
51270;SDS011;37744;50.960;4.136;2023-07-09T08:04:37;40.38;;;25.85;;
51270;SDS011;37744;50.960;4.136;2023-07-09T08:07:03;38.88;;;26.08;;
51270;SDS011;37744;50.960;4.136;2023-07-09T08:09:28;38.50;;;25.00;;
51270;SDS011;37744;50.960;4.136;2023-07-09T08:11:54;40.38;;;25.58;;
51270;SDS011;37744;50.960;4.136;2023-07-09T08:14:19;39.58;;;25.05;;
51270;SDS011;37744;50.960;4.136;2023-07-09T08:16:46;40.15;;;26.17;;
51270;SDS011;37744;50.960;4.136;2023-07-09T08:19:11;40.33;;;25.58;;
51270;SDS011;37744;50.960;4.136;2023-07-09T08:21:36;44.10;;;26.50;;
51270;SDS011;37744;50.960;4.136;2023-07-09T08:24:02;36.28;;;25.13;;
51270;SDS011;37744;50.960;4.136;2023-07-09T08:26:27;43.45;;;25.50;;
51270;SDS011;37744;50.960;4.136;2023-07-09T08:28:53;40.58;;;24.63;;
51270;SDS011;37744;50.960;4.136;2023-07-09T08:31:18;34.42;;;22.20;;
51270;SDS011;37744;50.960;4.136;2023-07-09T08:33:44;31.95;;;20.27;;
51270;SDS011;37744;50.960;4.136;2023-07-09T08:36:09;30.42;;;18.35;;
51270;SDS011;37744;50.960;4.136;2023-07-09T08:38:34;34.95;;;22.58;;
51270;SDS011;37744;50.960;4.136;2023-07-09T08:41:01;36.33;;;21.50;;
51270;SDS011;37744;50.960;4.136;2023-07-09T08:46:21;25.80;;;17.50;;
51270;SDS011;37744;50.960;4.136;2023-07-09T08:48:49;27.05;;;18.17;;
51270;SDS011;37744;50.960;4.136;2023-07-09T08:51:28;27.15;;;16.55;;
51270;SDS011;37744;50.960;4.136;2023-07-09T08:53:56;21.63;;;14.52;;
51270;SDS011;37744;50.960;4.136;2023-07-09T08:56:22;24.58;;;16.33;;
51270;SDS011;37744;50.960;4.136;2023-07-09T08:58:49;21.23;;;14.23;;
51270;SDS011;37744;50.960;4.136;2023-07-09T09:01:18;24.73;;;16.00;;
51270;SDS011;37744;50.960;4.136;2023-07-09T09:03:48;25.50;;;15.73;;
51270;SDS011;37744;50.960;4.136;2023-07-09T09:13:56;21.45;;;12.55;;
51270;SDS011;37744;50.960;4.136;2023-07-09T09:16:27;20.10;;;11.98;;
51270;SDS011;37744;50.960;4.136;2023-07-09T09:18:54;19.27;;;11.95;;
51270;SDS011;37744;50.960;4.136;2023-07-09T09:21:25;18.40;;;10.98;;
51270;SDS011;37744;50.960;4.136;2023-07-09T09:23:52;20.80;;;10.68;;
51270;SDS011;37744;50.960;4.136;2023-07-09T09:26:39;19.27;;;12.77;;
51270;SDS011;37744;50.960;4.136;2023-07-09T09:29:11;21.75;;;12.57;;
51270;SDS011;37744;50.960;4.136;2023-07-09T09:31:36;21.55;;;12.70;;
51270;SDS011;37744;50.960;4.136;2023-07-09T09:34:02;18.17;;;11.40;;
51270;SDS011;37744;50.960;4.136;2023-07-09T09:36:27;19.15;;;12.23;;
51270;SDS011;37744;50.960;4.136;2023-07-09T09:38:52;13.43;;;9.20;;
51270;SDS011;37744;50.960;4.136;2023-07-09T09:41:19;14.10;;;9.20;;
51270;SDS011;37744;50.960;4.136;2023-07-09T09:43:45;15.65;;;9.95;;
51270;SDS011;37744;50.960;4.136;2023-07-09T09:46:22;12.88;;;7.65;;
51270;SDS011;37744;50.960;4.136;2023-07-09T09:48:49;11.30;;;6.82;;
51270;SDS011;37744;50.960;4.136;2023-07-09T09:51:15;30.85;;;26.75;;
51270;SDS011;37744;50.960;4.136;2023-07-09T09:53:41;11.10;;;6.18;;
51270;SDS011;37744;50.960;4.136;2023-07-09T09:56:13;11.25;;;6.72;;
51270;SDS011;37744;50.960;4.136;2023-07-09T09:58:39;8.85;;;5.55;;
51270;SDS011;37744;50.960;4.136;2023-07-09T10:01:05;10.45;;;5.88;;
51270;SDS011;37744;50.960;4.136;2023-07-09T10:03:33;8.73;;;5.78;;
51270;SDS011;37744;50.960;4.136;2023-07-09T10:06:00;10.15;;;5.47;;
51270;SDS011;37744;50.960;4.136;2023-07-09T10:08:37;10.82;;;5.22;;
51270;SDS011;37744;50.960;4.136;2023-07-09T10:11:29;10.10;;;5.35;;
51270;SDS011;37744;50.960;4.136;2023-07-09T10:13:58;8.05;;;5.10;;
51270;SDS011;37744;50.960;4.136;2023-07-09T10:16:29;9.43;;;4.53;;
51270;SDS011;37744;50.960;4.136;2023-07-09T10:21:37;9.38;;;4.93;;
51270;SDS011;37744;50.960;4.136;2023-07-09T10:31:41;6.68;;;4.07;;
51270;SDS011;37744;50.960;4.136;2023-07-09T10:34:53;11.02;;;4.75;;
51270;SDS011;37744;50.960;4.136;2023-07-09T10:39:34;6.00;;;4.10;;
51270;SDS011;37744;50.960;4.136;2023-07-09T10:42:02;5.80;;;3.63;;
51270;SDS011;37744;50.960;4.136;2023-07-09T10:44:35;6.95;;;3.88;;
51270;SDS011;37744;50.960;4.136;2023-07-09T10:47:05;7.05;;;4.28;;
51270;SDS011;37744;50.960;4.136;2023-07-09T10:49:33;9.65;;;4.13;;
51270;SDS011;37744;50.960;4.136;2023-07-09T10:52:22;8.07;;;4.55;;
51270;SDS011;37744;50.960;4.136;2023-07-09T10:54:56;11.90;;;7.35;;
51270;SDS011;37744;50.960;4.136;2023-07-09T10:57:29;9.07;;;5.82;;
51270;SDS011;37744;50.960;4.136;2023-07-09T10:59:55;6.43;;;3.63;;
51270;SDS011;37744;50.960;4.136;2023-07-09T11:02:24;7.93;;;4.47;;
51270;SDS011;37744;50.960;4.136;2023-07-09T11:04:57;9.82;;;6.20;;
51270;SDS011;37744;50.960;4.136;2023-07-09T11:10:11;22.80;;;14.57;;
51270;SDS011;37744;50.960;4.136;2023-07-09T11:15:06;9.40;;;4.43;;
51270;SDS011;37744;50.960;4.136;2023-07-09T11:17:33;7.13;;;4.07;;
51270;SDS011;37744;50.960;4.136;2023-07-09T11:20:06;16.38;;;14.68;;
51270;SDS011;37744;50.960;4.136;2023-07-09T11:22:37;19.45;;;17.63;;
51270;SDS011;37744;50.960;4.136;2023-07-09T11:25:07;9.82;;;6.13;;
51270;SDS011;37744;50.960;4.136;2023-07-09T11:27:33;6.90;;;3.80;;
51270;SDS011;37744;50.960;4.136;2023-07-09T11:29:59;8.18;;;4.30;;
51270;SDS011;37744;50.960;4.136;2023-07-09T11:32:25;7.45;;;4.63;;
51270;SDS011;37744;50.960;4.136;2023-07-09T11:34:51;12.90;;;4.55;;
51270;SDS011;37744;50.960;4.136;2023-07-09T11:37:18;9.88;;;4.47;;
51270;SDS011;37744;50.960;4.136;2023-07-09T11:39:45;7.40;;;4.10;;
51270;SDS011;37744;50.960;4.136;2023-07-09T11:45:01;7.05;;;3.35;;
51270;SDS011;37744;50.960;4.136;2023-07-09T11:47:30;5.82;;;3.67;;
51270;SDS011;37744;50.960;4.136;2023-07-09T11:50:10;9.80;;;4.25;;
51270;SDS011;37744;50.960;4.136;2023-07-09T11:57:54;8.13;;;3.78;;
51270;SDS011;37744;50.960;4.136;2023-07-09T12:00:19;8.82;;;3.45;;
51270;SDS011;37744;50.960;4.136;2023-07-09T12:02:45;7.05;;;3.60;;
51270;SDS011;37744;50.960;4.136;2023-07-09T12:05:10;6.70;;;3.75;;
51270;SDS011;37744;50.960;4.136;2023-07-09T12:07:35;7.50;;;3.70;;
51270;SDS011;37744;50.960;4.136;2023-07-09T12:10:02;8.32;;;4.00;;
51270;SDS011;37744;50.960;4.136;2023-07-09T12:12:28;9.85;;;4.35;;
51270;SDS011;37744;50.960;4.136;2023-07-09T12:14:54;10.10;;;4.15;;
51270;SDS011;37744;50.960;4.136;2023-07-09T12:17:25;6.43;;;3.33;;
51270;SDS011;37744;50.960;4.136;2023-07-09T12:19:52;7.00;;;3.97;;
51270;SDS011;37744;50.960;4.136;2023-07-09T12:22:19;10.95;;;4.30;;
51270;SDS011;37744;50.960;4.136;2023-07-09T12:24:45;9.50;;;5.05;;
51270;SDS011;37744;50.960;4.136;2023-07-09T12:27:44;9.77;;;4.38;;
51270;SDS011;37744;50.960;4.136;2023-07-09T12:30:03;10.43;;;5.63;;
51270;SDS011;37744;50.960;4.136;2023-07-09T12:32:28;9.32;;;5.00;;
51270;SDS011;37744;50.960;4.136;2023-07-09T12:34:55;14.23;;;5.90;;
51270;SDS011;37744;50.960;4.136;2023-07-09T12:37:21;16.25;;;7.38;;
51270;SDS011;37744;50.960;4.136;2023-07-09T12:39:50;14.73;;;5.90;;
51270;SDS011;37744;50.960;4.136;2023-07-09T12:42:53;18.13;;;7.13;;
51270;SDS011;37744;50.960;4.136;2023-07-09T12:45:15;17.60;;;7.68;;
51270;SDS011;37744;50.960;4.136;2023-07-09T12:47:40;15.73;;;7.88;;
51270;SDS011;37744;50.960;4.136;2023-07-09T12:52:48;12.30;;;7.13;;
51270;SDS011;37744;50.960;4.136;2023-07-09T12:55:21;14.85;;;8.00;;
51270;SDS011;37744;50.960;4.136;2023-07-09T12:57:46;15.60;;;9.48;;
51270;SDS011;37744;50.960;4.136;2023-07-09T13:00:15;16.08;;;10.57;;
51270;SDS011;37744;50.960;4.136;2023-07-09T13:02:42;16.02;;;9.23;;
51270;SDS011;37744;50.960;4.136;2023-07-09T13:05:19;13.45;;;9.02;;
51270;SDS011;37744;50.960;4.136;2023-07-09T13:07:52;17.58;;;9.18;;
51270;SDS011;37744;50.960;4.136;2023-07-09T13:12:49;12.80;;;8.15;;
51270;SDS011;37744;50.960;4.136;2023-07-09T13:15:57;13.18;;;8.70;;
51270;SDS011;37744;50.960;4.136;2023-07-09T13:18:04;14.65;;;8.57;;
51270;SDS011;37744;50.960;4.136;2023-07-09T13:20:32;15.65;;;9.32;;
51270;SDS011;37744;50.960;4.136;2023-07-09T13:22:58;13.75;;;8.48;;
51270;SDS011;37744;50.960;4.136;2023-07-09T13:25:24;13.95;;;8.50;;
51270;SDS011;37744;50.960;4.136;2023-07-09T13:27:49;16.50;;;8.73;;
51270;SDS011;37744;50.960;4.136;2023-07-09T13:30:15;18.00;;;9.23;;
51270;SDS011;37744;50.960;4.136;2023-07-09T13:32:40;16.95;;;8.90;;
51270;SDS011;37744;50.960;4.136;2023-07-09T13:35:16;16.25;;;8.93;;
51270;SDS011;37744;50.960;4.136;2023-07-09T13:37:42;17.65;;;8.77;;
51270;SDS011;37744;50.960;4.136;2023-07-09T13:40:07;25.60;;;10.15;;
51270;SDS011;37744;50.960;4.136;2023-07-09T13:42:34;16.30;;;9.57;;
51270;SDS011;37744;50.960;4.136;2023-07-09T13:45:00;24.38;;;10.95;;
51270;SDS011;37744;50.960;4.136;2023-07-09T13:47:25;20.77;;;10.65;;
51270;SDS011;37744;50.960;4.136;2023-07-09T13:49:51;19.90;;;10.52;;
51270;SDS011;37744;50.960;4.136;2023-07-09T13:52:18;18.38;;;9.20;;
51270;SDS011;37744;50.960;4.136;2023-07-09T13:54:43;20.25;;;9.10;;
51270;SDS011;37744;50.960;4.136;2023-07-09T13:57:13;20.27;;;9.50;;
51270;SDS011;37744;50.960;4.136;2023-07-09T13:59:40;18.02;;;9.70;;
51270;SDS011;37744;50.960;4.136;2023-07-09T14:02:25;15.85;;;8.63;;
51270;SDS011;37744;50.960;4.136;2023-07-09T14:04:56;19.02;;;8.13;;
51270;SDS011;37744;50.960;4.136;2023-07-09T14:07:29;16.58;;;8.23;;
51270;SDS011;37744;50.960;4.136;2023-07-09T14:09:56;19.65;;;9.43;;
51270;SDS011;37744;50.960;4.136;2023-07-09T14:12:22;12.80;;;7.53;;
51270;SDS011;37744;50.960;4.136;2023-07-09T14:14:48;14.40;;;7.82;;
51270;SDS011;37744;50.960;4.136;2023-07-09T14:17:14;15.77;;;7.80;;
51270;SDS011;37744;50.960;4.136;2023-07-09T14:19:39;12.82;;;7.72;;
51270;SDS011;37744;50.960;4.136;2023-07-09T14:22:15;17.23;;;8.43;;
51270;SDS011;37744;50.960;4.136;2023-07-09T14:24:45;17.63;;;7.60;;
51270;SDS011;37744;50.960;4.136;2023-07-09T14:27:10;15.85;;;8.13;;
51270;SDS011;37744;50.960;4.136;2023-07-09T14:29:35;14.80;;;7.60;;
51270;SDS011;37744;50.960;4.136;2023-07-09T14:32:00;11.60;;;7.05;;
51270;SDS011;37744;50.960;4.136;2023-07-09T14:34:29;11.23;;;6.10;;
51270;SDS011;37744;50.960;4.136;2023-07-09T14:36:57;13.10;;;6.32;;
51270;SDS011;37744;50.960;4.136;2023-07-09T14:39:23;14.93;;;5.72;;
51270;SDS011;37744;50.960;4.136;2023-07-09T14:41:49;9.98;;;5.90;;
51270;SDS011;37744;50.960;4.136;2023-07-09T14:44:18;12.13;;;5.60;;
51270;SDS011;37744;50.960;4.136;2023-07-09T14:46:44;12.07;;;6.40;;
51270;SDS011;37744;50.960;4.136;2023-07-09T14:49:11;10.15;;;6.00;;
51270;SDS011;37744;50.960;4.136;2023-07-09T14:51:37;12.63;;;5.47;;
51270;SDS011;37744;50.960;4.136;2023-07-09T14:54:04;9.23;;;5.68;;
51270;SDS011;37744;50.960;4.136;2023-07-09T14:56:29;12.13;;;7.45;;
51270;SDS011;37744;50.960;4.136;2023-07-09T14:58:55;11.48;;;7.40;;
51270;SDS011;37744;50.960;4.136;2023-07-09T15:01:20;13.65;;;7.47;;
51270;SDS011;37744;50.960;4.136;2023-07-09T15:03:46;17.05;;;8.68;;
51270;SDS011;37744;50.960;4.136;2023-07-09T15:06:11;12.55;;;7.55;;
51270;SDS011;37744;50.960;4.136;2023-07-09T15:08:36;13.57;;;8.85;;
51270;SDS011;37744;50.960;4.136;2023-07-09T15:11:02;15.95;;;8.88;;
51270;SDS011;37744;50.960;4.136;2023-07-09T15:13:31;21.75;;;10.25;;
51270;SDS011;37744;50.960;4.136;2023-07-09T15:15:57;18.58;;;9.63;;
51270;SDS011;37744;50.960;4.136;2023-07-09T15:18:23;19.98;;;11.25;;